createdAt,value
2022-11-29T00:00:53.232Z,92.74
2022-11-29T00:05:53.173Z,92.95
2022-11-29T00:10:53.109Z,93.26
2022-11-29T00:15:53.037Z,93.36
2022-11-29T00:20:52.964Z,93.36
2022-11-29T00:25:52.909Z,93.87
2022-11-29T00:30:52.840Z,93.87
2022-11-29T00:35:52.773Z,94.08
2022-11-29T00:40:52.704Z,94.60
2022-11-29T00:45:52.659Z,94.70
2022-11-29T00:50:52.567Z,94.91
2022-11-29T00:55:52.505Z,95.01
2022-11-29T01:00:52.444Z,94.91
2022-11-29T01:05:52.374Z,95.22
2022-11-29T01:10:52.299Z,95.53
2022-11-29T01:15:52.441Z,95.63
2022-11-29T01:20:52.167Z,95.53
2022-11-29T01:25:52.107Z,95.84
2022-11-29T01:30:52.054Z,95.98
2022-11-29T01:35:51.973Z,96.19
2022-11-29T01:40:51.900Z,96.09
2022-11-29T01:45:51.885Z,96.50
2022-11-29T01:50:51.765Z,96.71
2022-11-29T01:55:51.731Z,97.12
2022-11-29T02:00:51.632Z,97.33
2022-11-29T02:05:51.573Z,97.74
2022-11-29T02:10:51.501Z,98.05
2022-11-29T02:15:51.536Z,98.26
2022-11-29T02:20:51.366Z,98.57
2022-11-29T02:25:51.308Z,98.77
2022-11-29T02:30:51.284Z,98.98
2022-11-29T02:35:51.172Z,99.19
2022-11-29T02:40:51.100Z,99.40
2022-11-29T02:45:51.092Z,99.71
2022-11-29T02:50:50.968Z,99.81
2022-11-29T02:55:50.911Z,99.99
2022-11-29T03:00:50.835Z,99.99
2022-11-29T03:05:50.778Z,99.99
2022-11-29T03:10:50.706Z,99.99
2022-11-29T03:15:50.732Z,99.99
2022-11-29T03:20:50.573Z,99.99
2022-11-29T03:25:50.514Z,99.99
2022-11-29T03:30:50.490Z,99.99
2022-11-29T03:35:50.388Z,99.92
2022-11-29T03:40:50.313Z,99.92
2022-11-29T03:45:50.253Z,99.92
2022-11-29T03:50:50.182Z,99.97
2022-11-29T03:55:50.123Z,99.99
2022-11-29T04:00:50.048Z,99.97
2022-11-29T04:05:49.990Z,99.97
2022-11-29T04:10:49.917Z,99.76
2022-11-29T04:15:49.908Z,99.66
2022-11-29T04:20:49.787Z,99.56
2022-11-29T04:25:49.728Z,99.45
2022-11-29T04:30:49.701Z,99.35
2022-11-29T04:35:49.591Z,99.24
2022-11-29T04:40:49.518Z,99.19
2022-11-29T04:45:49.460Z,99.19
2022-11-29T04:50:49.387Z,99.29
2022-11-29T04:55:49.328Z,99.40
2022-11-29T05:00:49.267Z,99.71
2022-11-29T05:05:49.197Z,99.81
2022-11-29T05:10:49.135Z,99.99
2022-11-29T05:15:49.073Z,99.99
2022-11-29T05:20:49.003Z,99.99
2022-11-29T05:25:48.939Z,99.99
2022-11-29T05:30:48.970Z,99.99
2022-11-29T05:35:48.816Z,99.92
2022-11-29T05:40:48.734Z,99.60
2022-11-29T05:45:48.686Z,99.71
2022-11-29T05:50:48.601Z,99.71
2022-11-29T05:55:48.557Z,99.81
2022-11-29T06:00:48.471Z,99.81
2022-11-29T06:05:48.422Z,99.81
2022-11-29T06:10:48.338Z,99.71
2022-11-29T06:15:48.290Z,99.71
2022-11-29T06:20:48.207Z,99.81
2022-11-29T06:25:48.150Z,99.81
2022-11-29T06:30:48.077Z,99.81
2022-11-29T06:35:48.020Z,99.71
2022-11-29T06:40:47.945Z,99.81
2022-11-29T06:45:47.887Z,99.81
2022-11-29T06:50:47.814Z,99.81
2022-11-29T06:55:47.767Z,99.76
2022-11-29T07:00:47.752Z,99.66
2022-11-29T07:05:47.635Z,99.71
2022-11-29T07:10:47.553Z,99.60
2022-11-29T07:15:47.655Z,99.76
2022-11-29T07:20:47.420Z,99.99
2022-11-29T07:25:47.381Z,99.87
2022-11-29T07:30:47.292Z,99.24
2022-11-29T07:35:47.233Z,98.67
2022-11-29T07:40:47.172Z,99.09
2022-11-29T07:45:47.103Z,99.09
2022-11-29T07:50:47.031Z,99.29
2022-11-29T07:55:46.975Z,99.04
2022-11-29T08:00:46.947Z,98.94
2022-11-29T08:05:46.842Z,98.84
2022-11-29T08:10:46.768Z,98.73
2022-11-29T08:15:46.715Z,98.99
2022-11-29T08:20:46.636Z,99.10
2022-11-29T08:25:46.579Z,98.68
2022-11-29T08:30:46.515Z,98.17
2022-11-29T08:35:46.449Z,98.38
2022-11-29T08:40:46.373Z,98.07
2022-11-29T08:45:46.362Z,98.12
2022-11-29T08:50:46.241Z,97.92
2022-11-29T08:55:46.199Z,97.87
2022-11-29T09:00:46.190Z,97.77
2022-11-29T09:05:46.064Z,97.46
2022-11-29T09:10:45.996Z,97.72
2022-11-29T09:15:45.932Z,96.49
2022-11-29T09:20:45.848Z,96.38
2022-11-29T09:25:45.801Z,96.75
2022-11-29T09:30:45.717Z,96.24
2022-11-29T09:35:45.661Z,95.83
2022-11-29T09:40:45.586Z,95.67
2022-11-29T09:45:45.576Z,95.26
2022-11-29T09:50:45.456Z,95.42
2022-11-29T09:55:45.405Z,95.33
2022-11-29T10:00:45.326Z,94.87
2022-11-29T10:05:45.267Z,94.45
2022-11-29T10:10:45.193Z,93.64
2022-11-29T10:15:45.149Z,92.91
2022-11-29T10:20:48.928Z,93.18
2022-11-29T10:25:45.014Z,91.33
2022-11-29T10:30:45.021Z,90.96
2022-11-29T10:35:44.885Z,91.88
2022-11-29T10:40:44.801Z,92.40
2022-11-29T10:45:44.794Z,92.66
2022-11-29T10:50:44.669Z,92.25
2022-11-29T10:55:44.616Z,92.35
2022-11-29T11:00:44.548Z,92.73
2022-11-29T11:05:44.513Z,90.77
2022-11-29T11:10:48.193Z,90.57
2022-11-29T11:15:44.354Z,90.15
2022-11-29T11:20:44.287Z,91.39
2022-11-29T11:25:44.219Z,91.49
2022-11-29T11:30:44.215Z,92.11
2022-11-29T11:35:44.093Z,92.41
2022-11-29T11:40:44.045Z,91.90
2022-11-29T11:45:44.067Z,91.80
2022-11-29T11:50:43.885Z,91.69
2022-11-29T11:55:43.826Z,91.90
2022-11-29T12:05:46.330Z,92.21
2022-11-29T12:10:43.623Z,92.31
2022-11-29T12:15:43.679Z,92.31
2022-11-29T12:20:43.518Z,92.21
2022-11-29T12:25:43.574Z,92.01
2022-11-29T12:30:43.561Z,92.21
2022-11-29T12:35:43.305Z,92.01
2022-11-29T12:40:43.243Z,92.21
2022-11-29T12:45:43.175Z,92.62
2022-11-29T12:50:43.115Z,93.13
2022-11-29T12:55:43.045Z,93.54
2022-11-29T13:00:42.973Z,93.96
2022-11-29T13:05:42.915Z,94.16
2022-11-29T13:10:42.844Z,93.49
2022-11-29T13:15:42.896Z,92.77
2022-11-29T13:20:42.712Z,92.66
2022-11-29T13:25:42.655Z,92.05
2022-11-29T13:30:42.583Z,92.25
2022-11-29T13:35:42.519Z,91.94
2022-11-29T13:40:42.460Z,92.35
2022-11-29T13:45:42.389Z,92.46
2022-11-29T13:50:42.334Z,92.35
2022-11-29T13:55:42.254Z,92.35
2022-11-29T14:00:42.197Z,92.46
2022-11-29T14:05:42.123Z,92.56
2022-11-29T14:10:42.067Z,92.66
2022-11-29T14:15:42.042Z,92.66
2022-11-29T14:20:41.947Z,92.66
2022-11-29T14:25:57.249Z,92.77
2022-11-29T14:30:42.843Z,93.01
2022-11-29T14:35:41.737Z,93.53
2022-11-29T14:40:41.689Z,94.04
2022-11-29T14:45:41.604Z,94.36
2022-11-29T14:50:41.557Z,94.56
2022-11-29T14:55:41.474Z,94.76
2022-11-29T15:00:41.419Z,94.76
2022-11-29T15:05:41.343Z,94.87
2022-11-29T15:10:41.285Z,95.08
2022-11-29T15:15:41.214Z,95.08
2022-11-29T15:20:41.154Z,95.17
2022-11-29T15:25:41.082Z,95.12
2022-11-29T15:30:41.023Z,94.91
2022-11-29T15:35:40.952Z,94.81
2022-11-29T15:40:40.906Z,94.70
2022-11-29T15:45:40.916Z,95.01
2022-11-29T15:50:40.771Z,95.53
2022-11-29T15:55:40.763Z,95.94
2022-11-29T16:00:40.680Z,96.05
2022-11-29T16:05:40.557Z,95.94
2022-11-29T16:10:40.508Z,95.94
2022-11-29T16:15:40.435Z,96.14
2022-11-29T16:20:40.384Z,96.14
2022-11-29T16:25:40.305Z,96.14
2022-11-29T16:30:40.236Z,96.14
2022-11-29T16:35:40.173Z,96.25
2022-11-29T16:40:40.104Z,96.45
2022-11-29T16:45:40.129Z,96.45
2022-11-29T16:50:39.974Z,96.35
2022-11-29T16:55:39.903Z,96.35
2022-11-29T17:00:39.846Z,96.77
2022-11-29T17:05:44.562Z,96.77
2022-11-29T17:10:39.711Z,96.77
2022-11-29T17:15:39.638Z,96.97
2022-11-29T17:20:39.581Z,97.28
2022-11-29T17:25:39.508Z,97.32
2022-11-29T17:30:39.475Z,97.18
2022-11-29T17:35:39.387Z,97.18
2022-11-29T17:40:39.319Z,97.07
2022-11-29T17:45:39.284Z,97.28
2022-11-29T17:50:39.196Z,97.38
2022-11-29T17:55:39.373Z,97.59
2022-11-29T18:00:39.059Z,97.63
2022-11-29T18:05:38.995Z,97.74
2022-11-29T18:10:38.925Z,97.74
2022-11-29T18:15:38.853Z,97.84
2022-11-29T18:20:38.793Z,97.84
2022-11-29T18:25:40.039Z,97.69
2022-11-29T18:30:38.696Z,97.59
2022-11-29T18:35:38.599Z,97.74
2022-11-29T18:40:38.531Z,97.94
2022-11-29T18:45:38.536Z,98.15
2022-11-29T18:50:38.400Z,98.25
2022-11-29T18:55:38.510Z,98.25
2022-11-29T19:00:38.268Z,98.15
2022-11-29T19:05:38.199Z,98.15
2022-11-29T19:10:38.136Z,98.15
2022-11-29T19:15:38.101Z,98.15
2022-11-29T19:20:38.008Z,98.05
2022-11-29T19:25:37.933Z,97.78
2022-11-29T19:30:37.929Z,97.58
2022-11-29T19:35:37.816Z,97.58
2022-11-29T19:40:37.744Z,97.27
2022-11-29T19:45:37.686Z,97.16
2022-11-29T19:50:37.615Z,96.96
2022-11-29T19:55:42.377Z,96.55
2022-11-29T20:00:37.486Z,96.44
2022-11-29T20:05:37.420Z,96.34
2022-11-29T20:10:37.351Z,96.03
2022-11-29T20:15:37.320Z,96.13
2022-11-29T20:20:37.221Z,96.75
2022-11-29T20:25:37.148Z,96.85
2022-11-29T20:30:37.092Z,96.75
2022-11-29T20:35:37.018Z,96.96
2022-11-29T20:40:36.959Z,97.06
2022-11-29T20:45:36.886Z,96.96
2022-11-29T20:50:36.828Z,96.85
2022-11-29T20:55:36.765Z,96.65
2022-11-29T21:00:36.703Z,96.44
2022-11-29T21:05:36.642Z,96.75
2022-11-29T21:10:36.568Z,97.16
2022-11-29T21:15:36.509Z,97.47
2022-11-29T21:20:36.439Z,97.47
2022-11-29T21:25:36.378Z,97.58
2022-11-29T21:30:36.306Z,97.68
2022-11-29T21:35:36.237Z,97.78
2022-11-29T21:40:36.190Z,97.78
2022-11-29T21:45:36.102Z,97.88
2022-11-29T21:50:36.058Z,97.78
2022-11-29T21:55:35.975Z,97.47
2022-11-29T22:00:37.627Z,97.41
2022-11-29T22:05:35.843Z,97.37
2022-11-29T22:10:35.801Z,97.47
2022-11-29T22:15:35.710Z,97.37
2022-11-29T22:20:35.653Z,97.27
2022-11-29T22:25:35.581Z,97.27
2022-11-29T22:30:35.522Z,97.16
2022-11-29T22:35:35.449Z,97.06
2022-11-29T22:40:35.395Z,96.85
2022-11-29T22:45:35.320Z,96.65
2022-11-29T22:50:35.260Z,96.65
2022-11-29T22:55:35.189Z,96.34
2022-11-29T23:00:35.183Z,96.44
2022-11-29T23:05:35.060Z,96.55
2022-11-29T23:10:35.010Z,96.44
2022-11-29T23:15:34.928Z,96.34
2022-11-29T23:20:34.878Z,96.34
2022-11-29T23:25:34.795Z,96.03
2022-11-29T23:30:34.755Z,96.03
2022-11-29T23:35:34.675Z,96.08
2022-11-29T23:40:34.610Z,96.13
2022-11-29T23:45:34.582Z,95.92
2022-11-29T23:50:34.475Z,95.72
2022-11-29T23:55:34.405Z,95.83
